TimeMDT,TemperatureF,Dew PointF,Humidity,Sea Level PressureIn,VisibilityMPH,Wind Direction,Wind SpeedMPH,Gust SpeedMPH,PrecipitationIn,Events,Conditions,WindDirDegrees,DateUTC
12:53 AM,50.0,35.1,57,30.19,10.0,South,6.9,-,N/A,,Clear,190,2013-05-12 06:53:00
1:53 AM,46.9,37.0,68,30.17,10.0,North,3.5,-,N/A,,Clear,10,2013-05-12 07:53:00
2:53 AM,46.0,39.9,79,30.16,10.0,SW,4.6,-,N/A,,Clear,220,2013-05-12 08:53:00
3:53 AM,43.0,39.9,89,30.15,10.0,Calm,Calm,-,N/A,,Overcast,0,2013-05-12 09:53:00
4:53 AM,44.1,39.9,85,30.13,10.0,Calm,Calm,-,N/A,,Clear,0,2013-05-12 10:53:00
5:53 AM,41.0,39.0,93,30.13,10.0,SE,4.6,-,N/A,,Clear,130,2013-05-12 11:53:00
6:53 AM,46.0,42.1,86,30.11,10.0,South,4.6,-,N/A,,Clear,170,2013-05-12 12:53:00
7:53 AM,52.0,44.1,74,30.13,10.0,Calm,Calm,-,N/A,,Clear,0,2013-05-12 13:53:00
8:53 AM,59.0,44.1,58,30.12,10.0,NW,5.8,-,N/A,,Clear,320,2013-05-12 14:53:00
9:53 AM,64.9,44.1,47,30.11,10.0,NNE,8.1,-,N/A,,Clear,20,2013-05-12 15:53:00
10:53 AM,70.0,44.1,39,30.09,10.0,North,8.1,-,N/A,,Clear,10,2013-05-12 16:53:00
11:53 AM,75.0,44.1,33,30.07,10.0,NNW,4.6,-,N/A,,Clear,330,2013-05-12 17:53:00
12:53 PM,77.0,39.9,26,30.04,10.0,Variable,4.6,-,N/A,,Clear,0,2013-05-12 18:53:00
1:53 PM,81.0,35.1,19,30.04,10.0,NNW,13.8,23.0,N/A,,Clear,340,2013-05-12 19:53:00
2:53 PM,80.1,34.0,19,30.04,10.0,North,17.3,21.9,N/A,,Partly Cloudy,10,2013-05-12 20:53:00
3:53 PM,81.0,34.0,18,30.02,10.0,North,11.5,-,N/A,,Clear,360,2013-05-12 21:53:00
4:53 PM,79.0,33.1,19,30.01,10.0,NE,15.0,18.4,N/A,,Clear,40,2013-05-12 22:53:00
5:53 PM,79.0,34.0,20,30.00,10.0,ENE,6.9,-,N/A,,Clear,70,2013-05-12 23:53:00
6:53 PM,73.0,37.9,28,30.00,10.0,ESE,8.1,-,N/A,,Clear,110,2013-05-13 00:53:00
7:53 PM,63.0,41.0,45,30.01,10.0,SE,9.2,-,N/A,,Clear,140,2013-05-13 01:53:00
8:53 PM,57.9,41.0,53,30.01,10.0,SE,8.1,-,N/A,,Clear,140,2013-05-13 02:53:00
9:53 PM,55.9,42.1,60,30.01,10.0,SSE,8.1,-,N/A,,Clear,150,2013-05-13 03:53:00
10:53 PM,55.9,42.1,60,30.01,10.0,SSE,8.1,-,N/A,,Clear,150,2013-05-13 04:53:00
11:53 PM,59.0,42.1,53,30.01,10.0,South,6.9,-,N/A,,Clear,180,2013-05-13 05:53:00